sensor_id;sensor_type;location;lat;lon;timestamp;P1;durP1;ratioP1;P2;durP2;ratioP2
9716;SDS011;4897;43.570;27.832;2024-02-28T00:00:33;27.02;;;24.27;;
9716;SDS011;4897;43.570;27.832;2024-02-28T00:03:01;23.73;;;21.17;;
9716;SDS011;4897;43.570;27.832;2024-02-28T00:05:29;21.60;;;19.50;;
9716;SDS011;4897;43.570;27.832;2024-02-28T00:07:56;24.13;;;21.73;;
9716;SDS011;4897;43.570;27.832;2024-02-28T00:10:23;26.23;;;21.92;;
9716;SDS011;4897;43.570;27.832;2024-02-28T00:12:50;24.23;;;21.58;;
9716;SDS011;4897;43.570;27.832;2024-02-28T00:15:17;24.10;;;21.58;;
9716;SDS011;4897;43.570;27.832;2024-02-28T00:17:45;26.55;;;22.90;;
9716;SDS011;4897;43.570;27.832;2024-02-28T00:20:12;28.80;;;25.73;;
9716;SDS011;4897;43.570;27.832;2024-02-28T00:22:39;41.97;;;38.17;;
9716;SDS011;4897;43.570;27.832;2024-02-28T00:25:07;33.08;;;29.10;;
9716;SDS011;4897;43.570;27.832;2024-02-28T00:27:36;28.92;;;23.20;;
9716;SDS011;4897;43.570;27.832;2024-02-28T00:30:04;26.55;;;23.23;;
9716;SDS011;4897;43.570;27.832;2024-02-28T00:32:32;25.80;;;23.23;;
9716;SDS011;4897;43.570;27.832;2024-02-28T00:35:00;27.80;;;24.75;;
9716;SDS011;4897;43.570;27.832;2024-02-28T00:37:30;28.92;;;25.73;;
9716;SDS011;4897;43.570;27.832;2024-02-28T00:39:57;26.70;;;23.80;;
9716;SDS011;4897;43.570;27.832;2024-02-28T00:42:24;26.65;;;23.73;;
9716;SDS011;4897;43.570;27.832;2024-02-28T00:44:52;34.15;;;24.23;;
9716;SDS011;4897;43.570;27.832;2024-02-28T00:47:19;25.45;;;21.48;;
9716;SDS011;4897;43.570;27.832;2024-02-28T00:49:46;26.50;;;23.50;;
9716;SDS011;4897;43.570;27.832;2024-02-28T00:52:14;25.48;;;21.85;;
9716;SDS011;4897;43.570;27.832;2024-02-28T00:54:41;41.42;;;37.70;;
9716;SDS011;4897;43.570;27.832;2024-02-28T00:57:08;34.53;;;31.23;;
9716;SDS011;4897;43.570;27.832;2024-02-28T00:59:35;34.88;;;30.45;;
9716;SDS011;4897;43.570;27.832;2024-02-28T01:02:02;30.60;;;22.55;;
9716;SDS011;4897;43.570;27.832;2024-02-28T01:04:29;27.10;;;23.08;;
9716;SDS011;4897;43.570;27.832;2024-02-28T01:06:56;21.45;;;16.95;;
9716;SDS011;4897;43.570;27.832;2024-02-28T01:09:25;19.52;;;17.35;;
9716;SDS011;4897;43.570;27.832;2024-02-28T01:11:51;25.23;;;20.42;;
9716;SDS011;4897;43.570;27.832;2024-02-28T01:14:18;27.45;;;21.10;;
9716;SDS011;4897;43.570;27.832;2024-02-28T01:16:45;40.33;;;36.15;;
9716;SDS011;4897;43.570;27.832;2024-02-28T01:19:12;29.60;;;26.42;;
9716;SDS011;4897;43.570;27.832;2024-02-28T01:21:39;28.58;;;25.50;;
9716;SDS011;4897;43.570;27.832;2024-02-28T01:24:06;23.20;;;19.75;;
9716;SDS011;4897;43.570;27.832;2024-02-28T01:26:35;24.83;;;20.67;;
9716;SDS011;4897;43.570;27.832;2024-02-28T01:29:02;25.45;;;20.95;;
9716;SDS011;4897;43.570;27.832;2024-02-28T01:31:29;23.90;;;19.98;;
9716;SDS011;4897;43.570;27.832;2024-02-28T01:33:56;22.65;;;20.38;;
9716;SDS011;4897;43.570;27.832;2024-02-28T01:36:23;24.92;;;22.33;;
9716;SDS011;4897;43.570;27.832;2024-02-28T01:38:51;26.48;;;23.65;;
9716;SDS011;4897;43.570;27.832;2024-02-28T01:41:19;34.15;;;29.20;;
9716;SDS011;4897;43.570;27.832;2024-02-28T01:43:47;26.48;;;23.55;;
9716;SDS011;4897;43.570;27.832;2024-02-28T01:46:20;30.02;;;22.25;;
9716;SDS011;4897;43.570;27.832;2024-02-28T01:48:49;32.35;;;29.00;;
9716;SDS011;4897;43.570;27.832;2024-02-28T01:51:16;32.88;;;29.40;;
9716;SDS011;4897;43.570;27.832;2024-02-28T01:53:44;36.35;;;32.78;;
9716;SDS011;4897;43.570;27.832;2024-02-28T01:56:11;37.92;;;33.92;;
9716;SDS011;4897;43.570;27.832;2024-02-28T01:58:40;36.47;;;32.47;;
9716;SDS011;4897;43.570;27.832;2024-02-28T02:01:08;35.10;;;31.48;;
9716;SDS011;4897;43.570;27.832;2024-02-28T02:03:36;36.08;;;32.17;;
9716;SDS011;4897;43.570;27.832;2024-02-28T02:06:03;34.67;;;31.13;;
9716;SDS011;4897;43.570;27.832;2024-02-28T02:08:30;29.55;;;26.42;;
9716;SDS011;4897;43.570;27.832;2024-02-28T02:10:59;31.73;;;27.90;;
9716;SDS011;4897;43.570;27.832;2024-02-28T02:13:26;29.33;;;26.58;;
9716;SDS011;4897;43.570;27.832;2024-02-28T02:15:53;29.25;;;26.38;;
9716;SDS011;4897;43.570;27.832;2024-02-28T02:18:22;35.38;;;25.73;;
9716;SDS011;4897;43.570;27.832;2024-02-28T02:20:50;31.25;;;23.08;;
9716;SDS011;4897;43.570;27.832;2024-02-28T02:23:22;27.88;;;23.85;;
9716;SDS011;4897;43.570;27.832;2024-02-28T02:25:48;26.80;;;23.92;;
9716;SDS011;4897;43.570;27.832;2024-02-28T02:28:15;30.90;;;23.50;;
9716;SDS011;4897;43.570;27.832;2024-02-28T02:30:42;28.08;;;24.20;;
9716;SDS011;4897;43.570;27.832;2024-02-28T02:33:10;28.48;;;24.15;;
9716;SDS011;4897;43.570;27.832;2024-02-28T02:35:37;34.58;;;24.88;;
9716;SDS011;4897;43.570;27.832;2024-02-28T02:38:04;37.80;;;33.25;;
9716;SDS011;4897;43.570;27.832;2024-02-28T02:40:33;33.92;;;27.92;;
9716;SDS011;4897;43.570;27.832;2024-02-28T02:43:00;30.48;;;27.48;;
9716;SDS011;4897;43.570;27.832;2024-02-28T02:45:27;29.80;;;26.83;;
9716;SDS011;4897;43.570;27.832;2024-02-28T02:47:54;34.25;;;24.33;;
9716;SDS011;4897;43.570;27.832;2024-02-28T02:50:21;30.17;;;26.13;;
9716;SDS011;4897;43.570;27.832;2024-02-28T02:52:48;29.50;;;25.83;;
9716;SDS011;4897;43.570;27.832;2024-02-28T02:55:15;32.08;;;24.90;;
9716;SDS011;4897;43.570;27.832;2024-02-28T02:57:43;27.63;;;24.60;;
9716;SDS011;4897;43.570;27.832;2024-02-28T03:00:12;28.90;;;24.85;;
9716;SDS011;4897;43.570;27.832;2024-02-28T03:02:39;29.13;;;26.23;;
9716;SDS011;4897;43.570;27.832;2024-02-28T03:05:06;30.00;;;24.83;;
9716;SDS011;4897;43.570;27.832;2024-02-28T03:07:34;28.08;;;25.10;;
9716;SDS011;4897;43.570;27.832;2024-02-28T03:10:01;30.65;;;25.35;;
9716;SDS011;4897;43.570;27.832;2024-02-28T03:12:28;40.20;;;27.60;;
9716;SDS011;4897;43.570;27.832;2024-02-28T03:14:56;30.08;;;25.83;;
9716;SDS011;4897;43.570;27.832;2024-02-28T03:17:24;35.33;;;27.15;;
9716;SDS011;4897;43.570;27.832;2024-02-28T03:19:51;44.67;;;40.10;;
9716;SDS011;4897;43.570;27.832;2024-02-28T03:22:17;33.13;;;29.58;;
9716;SDS011;4897;43.570;27.832;2024-02-28T03:24:44;37.95;;;31.00;;
9716;SDS011;4897;43.570;27.832;2024-02-28T03:27:11;31.30;;;26.05;;
9716;SDS011;4897;43.570;27.832;2024-02-28T03:29:38;29.92;;;25.23;;
9716;SDS011;4897;43.570;27.832;2024-02-28T03:32:07;29.55;;;24.67;;
9716;SDS011;4897;43.570;27.832;2024-02-28T03:34:34;28.85;;;24.80;;
9716;SDS011;4897;43.570;27.832;2024-02-28T03:37:01;28.20;;;25.25;;
9716;SDS011;4897;43.570;27.832;2024-02-28T03:39:28;31.85;;;24.73;;
9716;SDS011;4897;43.570;27.832;2024-02-28T03:41:55;28.85;;;24.55;;
9716;SDS011;4897;43.570;27.832;2024-02-28T03:44:22;28.00;;;25.02;;
9716;SDS011;4897;43.570;27.832;2024-02-28T03:46:51;32.28;;;25.15;;
9716;SDS011;4897;43.570;27.832;2024-02-28T03:49:22;29.85;;;23.85;;
9716;SDS011;4897;43.570;27.832;2024-02-28T03:51:49;30.10;;;25.35;;
9716;SDS011;4897;43.570;27.832;2024-02-28T03:54:16;30.60;;;24.00;;
9716;SDS011;4897;43.570;27.832;2024-02-28T03:56:42;31.08;;;25.13;;
9716;SDS011;4897;43.570;27.832;2024-02-28T03:59:10;32.97;;;25.50;;
9716;SDS011;4897;43.570;27.832;2024-02-28T04:01:37;32.47;;;24.40;;
9716;SDS011;4897;43.570;27.832;2024-02-28T04:04:04;37.42;;;32.28;;
9716;SDS011;4897;43.570;27.832;2024-02-28T04:06:32;33.85;;;30.45;;
9716;SDS011;4897;43.570;27.832;2024-02-28T04:08:59;33.10;;;29.48;;
9716;SDS011;4897;43.570;27.832;2024-02-28T04:11:26;37.35;;;28.67;;
9716;SDS011;4897;43.570;27.832;2024-02-28T04:13:53;31.75;;;27.73;;
9716;SDS011;4897;43.570;27.832;2024-02-28T04:16:20;33.20;;;27.20;;
9716;SDS011;4897;43.570;27.832;2024-02-28T04:18:47;34.65;;;26.83;;
9716;SDS011;4897;43.570;27.832;2024-02-28T04:21:14;32.45;;;26.17;;
9716;SDS011;4897;43.570;27.832;2024-02-28T04:23:42;32.45;;;26.15;;
9716;SDS011;4897;43.570;27.832;2024-02-28T04:26:09;30.98;;;25.90;;
9716;SDS011;4897;43.570;27.832;2024-02-28T04:28:36;29.48;;;26.35;;
9716;SDS011;4897;43.570;27.832;2024-02-28T04:31:03;32.45;;;25.48;;
9716;SDS011;4897;43.570;27.832;2024-02-28T04:33:30;30.48;;;25.58;;
9716;SDS011;4897;43.570;27.832;2024-02-28T04:35:57;32.30;;;23.85;;
9716;SDS011;4897;43.570;27.832;2024-02-28T04:38:24;37.53;;;25.05;;
9716;SDS011;4897;43.570;27.832;2024-02-28T04:40:52;29.60;;;24.77;;
9716;SDS011;4897;43.570;27.832;2024-02-28T04:43:19;31.42;;;25.02;;
9716;SDS011;4897;43.570;27.832;2024-02-28T04:45:46;32.55;;;24.98;;
9716;SDS011;4897;43.570;27.832;2024-02-28T04:48:13;36.58;;;26.60;;
9716;SDS011;4897;43.570;27.832;2024-02-28T04:50:40;31.75;;;24.33;;
9716;SDS011;4897;43.570;27.832;2024-02-28T04:53:07;29.27;;;23.98;;
9716;SDS011;4897;43.570;27.832;2024-02-28T04:55:34;35.65;;;23.30;;
9716;SDS011;4897;43.570;27.832;2024-02-28T04:58:02;30.58;;;23.17;;
9716;SDS011;4897;43.570;27.832;2024-02-28T05:00:29;32.55;;;22.45;;
9716;SDS011;4897;43.570;27.832;2024-02-28T05:02:56;29.70;;;22.85;;
9716;SDS011;4897;43.570;27.832;2024-02-28T05:05:23;33.65;;;22.80;;
9716;SDS011;4897;43.570;27.832;2024-02-28T05:07:50;35.92;;;25.13;;
9716;SDS011;4897;43.570;27.832;2024-02-28T05:10:17;35.30;;;26.17;;
9716;SDS011;4897;43.570;27.832;2024-02-28T05:12:44;32.60;;;24.42;;
9716;SDS011;4897;43.570;27.832;2024-02-28T05:15:13;36.05;;;25.95;;
9716;SDS011;4897;43.570;27.832;2024-02-28T05:17:40;35.20;;;24.58;;
9716;SDS011;4897;43.570;27.832;2024-02-28T05:20:08;36.72;;;22.25;;
9716;SDS011;4897;43.570;27.832;2024-02-28T05:22:40;30.52;;;22.30;;
9716;SDS011;4897;43.570;27.832;2024-02-28T05:25:07;29.77;;;21.80;;
9716;SDS011;4897;43.570;27.832;2024-02-28T05:27:34;27.02;;;20.38;;
9716;SDS011;4897;43.570;27.832;2024-02-28T05:30:02;29.70;;;22.65;;
9716;SDS011;4897;43.570;27.832;2024-02-28T05:32:32;30.23;;;22.92;;
9716;SDS011;4897;43.570;27.832;2024-02-28T05:35:02;31.52;;;24.50;;
9716;SDS011;4897;43.570;27.832;2024-02-28T05:37:29;33.67;;;25.88;;
9716;SDS011;4897;43.570;27.832;2024-02-28T05:39:56;34.35;;;23.80;;
9716;SDS011;4897;43.570;27.832;2024-02-28T05:42:24;29.05;;;22.52;;
9716;SDS011;4897;43.570;27.832;2024-02-28T05:44:53;32.17;;;21.67;;
9716;SDS011;4897;43.570;27.832;2024-02-28T05:47:20;32.15;;;23.05;;
9716;SDS011;4897;43.570;27.832;2024-02-28T05:49:49;39.85;;;24.15;;
9716;SDS011;4897;43.570;27.832;2024-02-28T05:52:16;28.90;;;22.83;;
9716;SDS011;4897;43.570;27.832;2024-02-28T05:54:43;28.48;;;24.45;;
9716;SDS011;4897;43.570;27.832;2024-02-28T05:57:10;29.63;;;23.08;;
9716;SDS011;4897;43.570;27.832;2024-02-28T05:59:37;36.85;;;23.13;;
9716;SDS011;4897;43.570;27.832;2024-02-28T06:02:06;31.23;;;23.80;;
9716;SDS011;4897;43.570;27.832;2024-02-28T06:04:36;37.42;;;27.00;;
9716;SDS011;4897;43.570;27.832;2024-02-28T06:07:04;37.72;;;25.02;;
9716;SDS011;4897;43.570;27.832;2024-02-28T06:09:32;35.58;;;22.73;;
9716;SDS011;4897;43.570;27.832;2024-02-28T06:11:59;29.23;;;23.13;;
9716;SDS011;4897;43.570;27.832;2024-02-28T06:14:27;31.98;;;25.60;;
9716;SDS011;4897;43.570;27.832;2024-02-28T06:16:54;26.88;;;22.02;;
9716;SDS011;4897;43.570;27.832;2024-02-28T06:19:21;30.60;;;21.50;;
9716;SDS011;4897;43.570;27.832;2024-02-28T06:21:47;29.30;;;22.77;;
9716;SDS011;4897;43.570;27.832;2024-02-28T06:24:16;28.17;;;22.45;;
9716;SDS011;4897;43.570;27.832;2024-02-28T06:26:43;24.33;;;21.80;;
9716;SDS011;4897;43.570;27.832;2024-02-28T06:29:10;26.27;;;20.67;;
9716;SDS011;4897;43.570;27.832;2024-02-28T06:31:37;26.92;;;21.05;;
9716;SDS011;4897;43.570;27.832;2024-02-28T06:34:04;32.75;;;22.20;;
9716;SDS011;4897;43.570;27.832;2024-02-28T06:36:31;28.20;;;20.90;;
9716;SDS011;4897;43.570;27.832;2024-02-28T06:38:58;30.60;;;24.50;;
9716;SDS011;4897;43.570;27.832;2024-02-28T06:41:27;32.95;;;27.55;;
9716;SDS011;4897;43.570;27.832;2024-02-28T06:43:53;28.90;;;25.27;;
9716;SDS011;4897;43.570;27.832;2024-02-28T06:46:22;38.25;;;28.95;;
9716;SDS011;4897;43.570;27.832;2024-02-28T06:48:49;27.77;;;24.63;;
9716;SDS011;4897;43.570;27.832;2024-02-28T06:51:16;38.35;;;24.20;;
9716;SDS011;4897;43.570;27.832;2024-02-28T06:53:43;30.95;;;25.65;;
9716;SDS011;4897;43.570;27.832;2024-02-28T06:56:10;29.70;;;26.15;;
9716;SDS011;4897;43.570;27.832;2024-02-28T06:58:39;28.17;;;22.13;;
9716;SDS011;4897;43.570;27.832;2024-02-28T07:01:05;25.60;;;22.42;;
9716;SDS011;4897;43.570;27.832;2024-02-28T07:03:32;25.90;;;19.88;;
9716;SDS011;4897;43.570;27.832;2024-02-28T07:05:59;22.98;;;19.33;;
9716;SDS011;4897;43.570;27.832;2024-02-28T07:08:26;30.40;;;19.80;;
9716;SDS011;4897;43.570;27.832;2024-02-28T07:10:53;30.45;;;19.92;;
9716;SDS011;4897;43.570;27.832;2024-02-28T07:13:20;26.38;;;19.98;;
9716;SDS011;4897;43.570;27.832;2024-02-28T07:15:48;24.60;;;19.20;;
9716;SDS011;4897;43.570;27.832;2024-02-28T07:18:15;29.38;;;20.13;;
9716;SDS011;4897;43.570;27.832;2024-02-28T07:20:42;25.10;;;20.25;;
9716;SDS011;4897;43.570;27.832;2024-02-28T07:23:09;23.92;;;18.90;;
9716;SDS011;4897;43.570;27.832;2024-02-28T07:25:36;31.10;;;18.38;;
9716;SDS011;4897;43.570;27.832;2024-02-28T07:28:03;25.33;;;18.42;;
9716;SDS011;4897;43.570;27.832;2024-02-28T07:30:33;31.48;;;21.27;;
9716;SDS011;4897;43.570;27.832;2024-02-28T07:33:02;35.33;;;22.20;;
9716;SDS011;4897;43.570;27.832;2024-02-28T07:35:31;27.25;;;18.92;;
9716;SDS011;4897;43.570;27.832;2024-02-28T07:37:58;28.05;;;17.92;;
9716;SDS011;4897;43.570;27.832;2024-02-28T07:40:25;22.20;;;17.27;;
9716;SDS011;4897;43.570;27.832;2024-02-28T07:42:52;23.90;;;18.42;;
9716;SDS011;4897;43.570;27.832;2024-02-28T07:45:21;26.23;;;19.75;;
9716;SDS011;4897;43.570;27.832;2024-02-28T07:47:48;24.13;;;17.85;;
9716;SDS011;4897;43.570;27.832;2024-02-28T07:50:17;25.45;;;18.83;;
9716;SDS011;4897;43.570;27.832;2024-02-28T07:52:44;26.77;;;19.95;;
9716;SDS011;4897;43.570;27.832;2024-02-28T07:55:11;21.77;;;18.35;;
9716;SDS011;4897;43.570;27.832;2024-02-28T07:57:44;25.88;;;19.42;;
9716;SDS011;4897;43.570;27.832;2024-02-28T08:00:12;25.60;;;19.13;;
9716;SDS011;4897;43.570;27.832;2024-02-28T08:02:41;27.25;;;19.05;;
9716;SDS011;4897;43.570;27.832;2024-02-28T08:05:08;29.77;;;19.52;;
9716;SDS011;4897;43.570;27.832;2024-02-28T08:07:36;33.60;;;25.27;;
9716;SDS011;4897;43.570;27.832;2024-02-28T08:10:04;27.42;;;19.00;;
9716;SDS011;4897;43.570;27.832;2024-02-28T08:12:31;23.33;;;19.00;;
9716;SDS011;4897;43.570;27.832;2024-02-28T08:14:58;25.15;;;19.55;;
9716;SDS011;4897;43.570;27.832;2024-02-28T08:17:25;23.30;;;19.83;;
9716;SDS011;4897;43.570;27.832;2024-02-28T08:19:52;22.80;;;17.85;;
9716;SDS011;4897;43.570;27.832;2024-02-28T08:22:19;29.88;;;21.05;;
9716;SDS011;4897;43.570;27.832;2024-02-28T08:24:48;22.75;;;18.73;;
9716;SDS011;4897;43.570;27.832;2024-02-28T08:27:17;26.50;;;19.30;;
9716;SDS011;4897;43.570;27.832;2024-02-28T08:29:45;24.52;;;18.52;;
9716;SDS011;4897;43.570;27.832;2024-02-28T08:32:13;22.33;;;17.85;;
9716;SDS011;4897;43.570;27.832;2024-02-28T08:34:43;30.85;;;23.17;;
9716;SDS011;4897;43.570;27.832;2024-02-28T08:37:10;24.73;;;17.63;;
9716;SDS011;4897;43.570;27.832;2024-02-28T08:39:37;25.58;;;18.48;;
9716;SDS011;4897;43.570;27.832;2024-02-28T08:42:08;31.42;;;18.52;;
9716;SDS011;4897;43.570;27.832;2024-02-28T08:44:35;20.42;;;17.80;;
9716;SDS011;4897;43.570;27.832;2024-02-28T08:47:02;23.38;;;16.85;;
9716;SDS011;4897;43.570;27.832;2024-02-28T08:49:29;21.85;;;18.40;;
9716;SDS011;4897;43.570;27.832;2024-02-28T08:51:56;26.20;;;18.33;;
9716;SDS011;4897;43.570;27.832;2024-02-28T08:54:23;26.70;;;18.35;;
9716;SDS011;4897;43.570;27.832;2024-02-28T08:56:53;27.25;;;17.95;;
9716;SDS011;4897;43.570;27.832;2024-02-28T08:59:21;25.65;;;20.70;;
9716;SDS011;4897;43.570;27.832;2024-02-28T09:01:48;28.73;;;20.08;;
9716;SDS011;4897;43.570;27.832;2024-02-28T09:04:15;25.45;;;18.80;;
9716;SDS011;4897;43.570;27.832;2024-02-28T09:06:42;26.42;;;18.55;;
9716;SDS011;4897;43.570;27.832;2024-02-28T09:09:09;21.20;;;18.15;;
9716;SDS011;4897;43.570;27.832;2024-02-28T09:11:36;24.42;;;18.77;;
9716;SDS011;4897;43.570;27.832;2024-02-28T09:14:04;24.98;;;19.60;;
9716;SDS011;4897;43.570;27.832;2024-02-28T09:16:32;21.75;;;18.70;;
9716;SDS011;4897;43.570;27.832;2024-02-28T09:18:59;23.10;;;18.92;;
9716;SDS011;4897;43.570;27.832;2024-02-28T09:21:26;23.02;;;19.17;;
9716;SDS011;4897;43.570;27.832;2024-02-28T09:23:53;26.33;;;20.35;;
9716;SDS011;4897;43.570;27.832;2024-02-28T09:26:20;25.35;;;18.77;;
9716;SDS011;4897;43.570;27.832;2024-02-28T09:28:47;23.00;;;18.50;;
9716;SDS011;4897;43.570;27.832;2024-02-28T09:31:14;23.27;;;19.17;;
9716;SDS011;4897;43.570;27.832;2024-02-28T09:33:43;29.23;;;20.75;;
9716;SDS011;4897;43.570;27.832;2024-02-28T09:36:11;28.27;;;20.63;;
9716;SDS011;4897;43.570;27.832;2024-02-28T09:38:38;24.58;;;20.02;;
9716;SDS011;4897;43.570;27.832;2024-02-28T09:41:06;27.88;;;20.75;;
9716;SDS011;4897;43.570;27.832;2024-02-28T09:43:35;20.95;;;18.80;;
9716;SDS011;4897;43.570;27.832;2024-02-28T09:46:07;33.80;;;21.30;;
9716;SDS011;4897;43.570;27.832;2024-02-28T09:48:37;25.30;;;19.85;;
9716;SDS011;4897;43.570;27.832;2024-02-28T09:51:07;21.33;;;19.02;;
9716;SDS011;4897;43.570;27.832;2024-02-28T09:53:35;23.65;;;19.70;;
9716;SDS011;4897;43.570;27.832;2024-02-28T09:56:03;25.23;;;18.13;;
9716;SDS011;4897;43.570;27.832;2024-02-28T09:58:32;23.60;;;19.17;;
9716;SDS011;4897;43.570;27.832;2024-02-28T10:01:03;29.83;;;25.38;;
9716;SDS011;4897;43.570;27.832;2024-02-28T10:03:34;20.98;;;18.40;;
9716;SDS011;4897;43.570;27.832;2024-02-28T10:06:03;31.48;;;22.55;;
9716;SDS011;4897;43.570;27.832;2024-02-28T10:08:32;27.60;;;19.83;;
9716;SDS011;4897;43.570;27.832;2024-02-28T10:11:00;24.70;;;20.48;;
9716;SDS011;4897;43.570;27.832;2024-02-28T10:13:27;35.78;;;26.70;;
9716;SDS011;4897;43.570;27.832;2024-02-28T10:15:54;27.92;;;23.27;;
9716;SDS011;4897;43.570;27.832;2024-02-28T10:18:21;42.63;;;27.35;;
9716;SDS011;4897;43.570;27.832;2024-02-28T10:20:50;37.30;;;24.02;;
9716;SDS011;4897;43.570;27.832;2024-02-28T10:23:17;25.83;;;18.15;;
9716;SDS011;4897;43.570;27.832;2024-02-28T10:25:45;35.17;;;22.90;;
9716;SDS011;4897;43.570;27.832;2024-02-28T10:28:13;40.17;;;26.17;;
9716;SDS011;4897;43.570;27.832;2024-02-28T10:30:41;28.58;;;17.83;;
9716;SDS011;4897;43.570;27.832;2024-02-28T10:33:14;23.77;;;16.35;;
9716;SDS011;4897;43.570;27.832;2024-02-28T10:35:42;21.42;;;16.83;;
9716;SDS011;4897;43.570;27.832;2024-02-28T10:38:12;20.10;;;16.02;;
9716;SDS011;4897;43.570;27.832;2024-02-28T10:40:40;23.48;;;18.42;;
9716;SDS011;4897;43.570;27.832;2024-02-28T10:43:09;38.45;;;21.80;;
9716;SDS011;4897;43.570;27.832;2024-02-28T10:45:37;45.17;;;32.28;;
9716;SDS011;4897;43.570;27.832;2024-02-28T10:48:05;25.83;;;20.48;;
9716;SDS011;4897;43.570;27.832;2024-02-28T10:50:33;31.33;;;23.35;;
9716;SDS011;4897;43.570;27.832;2024-02-28T10:53:00;26.23;;;20.52;;
9716;SDS011;4897;43.570;27.832;2024-02-28T10:55:29;28.23;;;20.88;;
9716;SDS011;4897;43.570;27.832;2024-02-28T10:58:01;31.65;;;23.48;;
9716;SDS011;4897;43.570;27.832;2024-02-28T11:00:33;33.38;;;25.13;;
9716;SDS011;4897;43.570;27.832;2024-02-28T11:03:01;21.98;;;18.67;;
9716;SDS011;4897;43.570;27.832;2024-02-28T11:05:36;28.23;;;19.83;;
9716;SDS011;4897;43.570;27.832;2024-02-28T11:08:05;32.65;;;22.05;;
9716;SDS011;4897;43.570;27.832;2024-02-28T11:10:34;28.92;;;20.10;;
9716;SDS011;4897;43.570;27.832;2024-02-28T11:13:01;27.73;;;20.73;;
9716;SDS011;4897;43.570;27.832;2024-02-28T11:15:28;24.15;;;18.95;;
9716;SDS011;4897;43.570;27.832;2024-02-28T11:18:06;30.00;;;22.70;;
9716;SDS011;4897;43.570;27.832;2024-02-28T11:20:34;29.48;;;23.60;;
9716;SDS011;4897;43.570;27.832;2024-02-28T11:23:05;35.22;;;24.13;;
9716;SDS011;4897;43.570;27.832;2024-02-28T11:25:34;26.67;;;20.42;;
9716;SDS011;4897;43.570;27.832;2024-02-28T11:28:01;25.30;;;19.13;;
9716;SDS011;4897;43.570;27.832;2024-02-28T11:30:28;22.05;;;16.30;;
9716;SDS011;4897;43.570;27.832;2024-02-28T11:32:55;25.70;;;18.45;;
9716;SDS011;4897;43.570;27.832;2024-02-28T11:35:24;26.08;;;18.20;;
9716;SDS011;4897;43.570;27.832;2024-02-28T11:37:51;28.45;;;19.33;;
9716;SDS011;4897;43.570;27.832;2024-02-28T11:40:22;23.83;;;17.77;;
9716;SDS011;4897;43.570;27.832;2024-02-28T11:42:52;31.73;;;18.77;;
9716;SDS011;4897;43.570;27.832;2024-02-28T11:45:24;24.95;;;15.98;;
9716;SDS011;4897;43.570;27.832;2024-02-28T11:47:51;20.52;;;15.82;;
9716;SDS011;4897;43.570;27.832;2024-02-28T11:50:20;19.77;;;17.13;;
9716;SDS011;4897;43.570;27.832;2024-02-28T11:52:47;21.20;;;16.67;;
9716;SDS011;4897;43.570;27.832;2024-02-28T11:55:14;26.02;;;15.00;;
9716;SDS011;4897;43.570;27.832;2024-02-28T11:57:41;21.45;;;15.85;;
9716;SDS011;4897;43.570;27.832;2024-02-28T12:00:11;22.70;;;17.15;;
9716;SDS011;4897;43.570;27.832;2024-02-28T12:02:39;20.85;;;16.38;;
9716;SDS011;4897;43.570;27.832;2024-02-28T12:05:07;24.90;;;18.15;;
9716;SDS011;4897;43.570;27.832;2024-02-28T12:07:36;21.73;;;17.50;;
9716;SDS011;4897;43.570;27.832;2024-02-28T12:10:03;23.27;;;17.30;;
9716;SDS011;4897;43.570;27.832;2024-02-28T12:12:31;27.42;;;16.83;;
9716;SDS011;4897;43.570;27.832;2024-02-28T12:14:59;22.00;;;15.98;;
9716;SDS011;4897;43.570;27.832;2024-02-28T12:17:28;20.77;;;16.15;;
9716;SDS011;4897;43.570;27.832;2024-02-28T12:19:56;22.75;;;15.95;;
9716;SDS011;4897;43.570;27.832;2024-02-28T12:22:25;19.10;;;15.40;;
9716;SDS011;4897;43.570;27.832;2024-02-28T12:24:53;23.63;;;16.92;;
9716;SDS011;4897;43.570;27.832;2024-02-28T12:27:20;25.30;;;17.35;;
9716;SDS011;4897;43.570;27.832;2024-02-28T12:29:47;29.10;;;19.48;;
9716;SDS011;4897;43.570;27.832;2024-02-28T12:32:14;20.85;;;16.35;;
9716;SDS011;4897;43.570;27.832;2024-02-28T12:34:43;26.40;;;17.05;;
9716;SDS011;4897;43.570;27.832;2024-02-28T12:37:10;25.58;;;21.98;;
9716;SDS011;4897;43.570;27.832;2024-02-28T12:39:39;35.55;;;21.17;;
9716;SDS011;4897;43.570;27.832;2024-02-28T12:42:09;29.48;;;19.30;;
9716;SDS011;4897;43.570;27.832;2024-02-28T12:44:38;30.08;;;20.73;;
9716;SDS011;4897;43.570;27.832;2024-02-28T12:47:06;29.55;;;20.45;;
9716;SDS011;4897;43.570;27.832;2024-02-28T12:49:34;25.77;;;18.48;;
9716;SDS011;4897;43.570;27.832;2024-02-28T12:52:01;30.95;;;21.63;;
9716;SDS011;4897;43.570;27.832;2024-02-28T12:54:28;30.20;;;20.05;;
9716;SDS011;4897;43.570;27.832;2024-02-28T12:56:55;25.52;;;18.45;;
9716;SDS011;4897;43.570;27.832;2024-02-28T12:59:24;24.77;;;17.58;;
9716;SDS011;4897;43.570;27.832;2024-02-28T13:01:51;30.33;;;20.05;;
9716;SDS011;4897;43.570;27.832;2024-02-28T13:04:18;28.80;;;17.23;;
9716;SDS011;4897;43.570;27.832;2024-02-28T13:06:45;20.90;;;17.05;;
9716;SDS011;4897;43.570;27.832;2024-02-28T13:09:12;25.20;;;16.15;;
9716;SDS011;4897;43.570;27.832;2024-02-28T13:11:43;23.58;;;17.70;;
9716;SDS011;4897;43.570;27.832;2024-02-28T13:14:13;34.70;;;26.63;;
9716;SDS011;4897;43.570;27.832;2024-02-28T13:16:41;26.08;;;18.92;;
9716;SDS011;4897;43.570;27.832;2024-02-28T13:19:08;24.55;;;17.42;;
9716;SDS011;4897;43.570;27.832;2024-02-28T13:21:35;20.60;;;16.58;;
9716;SDS011;4897;43.570;27.832;2024-02-28T13:24:05;26.25;;;18.35;;
9716;SDS011;4897;43.570;27.832;2024-02-28T13:26:32;22.08;;;17.48;;
9716;SDS011;4897;43.570;27.832;2024-02-28T13:28:59;23.27;;;15.75;;
9716;SDS011;4897;43.570;27.832;2024-02-28T13:31:25;19.67;;;16.13;;
9716;SDS011;4897;43.570;27.832;2024-02-28T13:33:54;25.90;;;16.23;;
9716;SDS011;4897;43.570;27.832;2024-02-28T13:36:21;28.40;;;17.40;;
9716;SDS011;4897;43.570;27.832;2024-02-28T13:38:49;25.85;;;16.80;;
9716;SDS011;4897;43.570;27.832;2024-02-28T13:41:15;21.45;;;17.60;;
9716;SDS011;4897;43.570;27.832;2024-02-28T13:43:42;18.95;;;15.70;;
9716;SDS011;4897;43.570;27.832;2024-02-28T13:46:09;17.75;;;15.38;;
9716;SDS011;4897;43.570;27.832;2024-02-28T13:48:36;18.70;;;16.27;;
9716;SDS011;4897;43.570;27.832;2024-02-28T13:51:05;22.13;;;15.52;;
9716;SDS011;4897;43.570;27.832;2024-02-28T13:53:32;20.42;;;16.30;;
9716;SDS011;4897;43.570;27.832;2024-02-28T13:56:00;22.20;;;16.48;;
9716;SDS011;4897;43.570;27.832;2024-02-28T13:58:30;19.98;;;16.00;;
9716;SDS011;4897;43.570;27.832;2024-02-28T14:00:57;23.88;;;16.33;;
9716;SDS011;4897;43.570;27.832;2024-02-28T14:03:24;20.75;;;15.55;;
9716;SDS011;4897;43.570;27.832;2024-02-28T14:05:53;22.35;;;17.00;;
9716;SDS011;4897;43.570;27.832;2024-02-28T14:08:21;21.08;;;16.08;;
9716;SDS011;4897;43.570;27.832;2024-02-28T14:10:48;19.42;;;16.27;;
9716;SDS011;4897;43.570;27.832;2024-02-28T14:13:15;18.65;;;15.55;;
9716;SDS011;4897;43.570;27.832;2024-02-28T14:15:43;23.17;;;16.77;;
9716;SDS011;4897;43.570;27.832;2024-02-28T14:18:12;22.05;;;17.00;;
9716;SDS011;4897;43.570;27.832;2024-02-28T14:20:39;31.42;;;23.33;;
9716;SDS011;4897;43.570;27.832;2024-02-28T14:23:06;24.58;;;17.15;;
9716;SDS011;4897;43.570;27.832;2024-02-28T14:25:34;24.27;;;17.00;;
9716;SDS011;4897;43.570;27.832;2024-02-28T14:28:01;22.85;;;17.95;;
9716;SDS011;4897;43.570;27.832;2024-02-28T14:30:28;25.48;;;17.55;;
9716;SDS011;4897;43.570;27.832;2024-02-28T14:32:59;28.83;;;18.25;;
9716;SDS011;4897;43.570;27.832;2024-02-28T14:35:28;23.27;;;16.38;;